Time;durP1;ratioP1;P1;durP2;ratioP2;P2;SDS_P1;SDS_P2;PMS_P1;PMS_P2;Temp;Humidity;BMP_temperature;BMP_pressure;BME280_temperature;BME280_humidity;BME280_pressure;Samples;Min_cycle;Max_cycle;Signal;HPM_P1;HPM_P2
2022/01/02 00:01:29;;;;;;;;;24.33;22.67;;;;;12.86;63.77;101530.22;5099939;27;45346;-68
2022/01/02 00:04:00;;;;;;;;;23.33;23.00;;;;;12.99;63.96;101560.13;5100251;27;45484;-67
2022/01/02 00:06:32;;;;;;;;;21.33;20.33;;;;;12.98;63.93;101560.28;5100011;27;45430;-68
2022/01/02 00:09:05;;;;;;;;;21.00;21.00;;;;;12.97;64.15;101574.59;5099705;27;45756;-68
2022/01/02 00:11:30;;;;;;;;;22.67;21.67;;;;;12.94;63.63;101561.53;5099237;27;45625;-68
2022/01/02 00:14:06;;;;;;;;;21.67;21.67;;;;;12.95;63.91;101558.75;5099874;27;45854;-69
2022/01/02 00:16:33;;;;;;;;;22.67;18.33;;;;;12.84;63.45;101540.19;5080648;27;45541;-69
2022/01/02 00:19:08;;;;;;;;;19.00;15.67;;;;;12.76;63.88;101534.69;5100315;27;46095;-68
2022/01/02 00:21:40;;;;;;;;;20.33;20.00;;;;;12.86;64.20;101554.25;5099598;27;45358;-73
2022/01/02 00:24:12;;;;;;;;;22.00;19.67;;;;;12.81;63.73;101543.13;5082270;27;45534;-68
2022/01/02 00:26:44;;;;;;;;;26.00;22.00;;;;;12.90;63.93;101552.97;5100073;27;45304;-69
2022/01/02 00:29:11;;;;;;;;;19.33;19.33;;;;;12.95;64.35;101566.75;5099433;27;46448;-68
2022/01/02 00:31:38;;;;;;;;;26.67;21.00;;;;;12.88;63.80;101551.44;5099319;27;45384;-68
2022/01/02 00:34:05;;;;;;;;;21.67;20.00;;;;;13.03;64.00;101574.06;5099778;27;45226;-69
2022/01/02 00:36:32;;;;;;;;;26.00;22.00;;;;;13.02;63.81;101573.22;5099743;27;45559;-68
2022/01/02 00:38:57;;;;;;;;;23.00;19.00;;;;;13.09;63.45;101566.34;5099137;27;46661;-68
2022/01/02 00:41:27;;;;;;;;;23.67;21.33;;;;;13.01;63.28;101544.84;5099402;27;45343;-68
2022/01/02 00:44:02;;;;;;;;;21.67;21.67;;;;;13.10;63.38;101557.34;5081228;27;45325;-68
2022/01/02 00:46:34;;;;;;;;;19.00;17.33;;;;;13.07;63.43;101546.94;5099475;27;45477;-68
2022/01/02 00:49:03;;;;;;;;;22.67;22.00;;;;;13.08;63.29;101558.47;5112285;27;46485;-68
2022/01/02 00:51:47;;;;;;;;;20.33;20.33;;;;;12.76;63.28;101502.69;5119545;27;45411;-68
2022/01/02 00:54:22;;;;;;;;;19.67;19.67;;;;;13.10;63.49;101573.38;5119895;27;45282;-68
2022/01/02 00:56:52;;;;;;;;;19.33;18.67;;;;;13.08;62.91;101575.34;5119906;27;45260;-68
2022/01/02 00:59:27;;;;;;;;;21.67;20.33;;;;;13.09;63.57;101569.00;5119299;27;47433;-68
2022/01/02 01:02:06;;;;;;;;;21.33;21.00;;;;;13.05;63.52;101535.56;5119444;27;45555;-69
2022/01/02 01:04:34;;;;;;;;;22.00;21.00;;;;;12.99;63.46;101514.75;5100165;27;45610;-69
2022/01/02 01:07:04;;;;;;;;;23.33;20.00;;;;;12.90;63.32;101510.28;5119902;27;45538;-68
2022/01/02 01:09:31;;;;;;;;;19.00;16.67;;;;;12.87;63.47;101505.22;5119225;27;46727;-69
2022/01/02 01:12:01;;;;;;;;;18.33;15.67;;;;;12.92;63.39;101504.81;5119324;27;45223;-69
2022/01/02 01:14:28;;;;;;;;;16.00;14.33;;;;;13.01;63.30;101519.97;5119409;27;45353;-69
2022/01/02 01:16:53;;;;;;;;;18.33;18.33;;;;;13.02;63.52;101506.50;5119355;27;45488;-69
2022/01/02 01:19:20;;;;;;;;;20.33;20.33;;;;;13.04;63.75;101504.53;5117004;27;45671;-67
2022/01/02 01:21:46;;;;;;;;;21.67;21.33;;;;;12.55;63.76;101405.94;5119336;27;45244;-68
2022/01/02 01:24:12;;;;;;;;;22.33;21.33;;;;;12.93;64.22;101480.63;5119123;27;45176;-68
2022/01/02 01:26:39;;;;;;;;;23.67;22.67;;;;;12.94;63.63;101471.66;5119562;27;45520;-67
2022/01/02 01:29:05;;;;;;;;;29.00;25.00;;;;;12.90;63.98;101467.59;5118990;27;46746;-67
2022/01/02 01:31:30;;;;;;;;;26.67;24.00;;;;;12.97;63.43;101484.69;5119161;27;45347;-68
2022/01/02 01:33:56;;;;;;;;;23.67;22.33;;;;;12.97;63.29;101495.38;5119123;27;45323;-68
2022/01/02 01:36:21;;;;;;;;;23.67;23.67;;;;;12.92;63.76;101492.28;5119290;27;45367;-68
2022/01/02 01:38:46;;;;;;;;;25.67;24.33;;;;;12.90;64.19;101488.94;5118739;27;46441;-68
2022/01/02 01:41:23;;;;;;;;;26.00;23.00;;;;;13.02;63.79;101500.31;5119052;27;45384;-68
2022/01/02 01:44:07;;;;;;;;;23.33;22.33;;;;;12.94;63.77;101481.47;5100566;27;45365;-67
2022/01/02 01:46:34;;;;;;;;;27.33;25.00;;;;;12.85;63.92;101475.19;5119091;27;45307;-69
2022/01/02 01:48:59;;;;;;;;;18.67;18.67;;;;;12.49;64.05;101420.69;5102569;27;46137;-68
2022/01/02 01:51:25;;;;;;;;;25.67;24.67;;;;;12.86;64.40;101484.88;5098201;27;45354;-68
2022/01/02 01:53:50;;;;;;;;;19.67;18.00;;;;;12.84;64.11;101484.16;5098458;27;45439;-69
2022/01/02 01:56:16;;;;;;;;;21.67;20.67;;;;;12.86;64.25;101474.19;5098623;27;45255;-68
2022/01/02 01:58:42;;;;;;;;;23.33;22.33;;;;;12.72;64.49;101445.25;5097811;27;47039;-68
2022/01/02 02:01:07;;;;;;;;;18.67;14.33;;;;;12.87;64.29;101461.69;5098017;27;45242;-68
2022/01/02 02:03:33;;;;;;;;;16.67;16.67;;;;;12.87;64.66;101453.69;5098327;27;45536;-67
2022/01/02 02:05:59;;;;;;;;;17.33;17.00;;;;;12.86;64.58;101458.19;5098220;27;45245;-68
2022/01/02 02:08:26;;;;;;;;;20.33;19.33;;;;;12.92;64.31;101467.44;5097871;27;46534;-68
2022/01/02 02:10:56;;;;;;;;;18.33;17.33;;;;;12.90;64.26;101464.91;5097895;27;45318;-69
2022/01/02 02:13:22;;;;;;;;;24.00;19.33;;;;;12.89;64.02;101457.03;5098050;27;45303;-68
2022/01/02 02:15:50;;;;;;;;;20.00;19.00;;;;;12.89;64.39;101441.88;5088038;27;45529;-68
2022/01/02 02:18:15;;;;;;;;;21.33;19.00;;;;;12.90;64.11;101443.56;5077053;27;46701;-68
2022/01/02 02:20:42;;;;;;;;;22.67;19.00;;;;;12.92;64.01;101425.56;5077313;28;45269;-68
2022/01/02 02:23:07;;;;;;;;;17.00;16.33;;;;;12.97;63.58;101436.66;5077376;28;45552;-68
2022/01/02 02:25:35;;;;;;;;;17.00;16.33;;;;;12.98;63.60;101435.66;5059422;28;45575;-69
2022/01/02 02:28:04;;;;;;;;;18.33;17.33;;;;;13.00;63.53;101420.34;5077020;28;47471;-69
2022/01/02 02:30:32;;;;;;;;;20.33;18.33;;;;;13.00;63.99;101417.69;5077031;28;45244;-68
2022/01/02 02:33:00;;;;;;;;;17.67;17.00;;;;;12.88;63.80;101392.16;5077554;28;45332;-69
2022/01/02 02:35:28;;;;;;;;;17.67;15.33;;;;;12.93;63.93;101400.56;5078613;27;45327;-70
2022/01/02 02:37:54;;;;;;;;;16.00;16.00;;;;;12.85;63.39;101387.13;5076719;28;46125;-67
2022/01/02 02:40:22;;;;;;;;;13.67;13.67;;;;;13.05;63.83;101409.28;5058601;28;46005;-69
2022/01/02 02:42:54;;;;;;;;;16.33;15.00;;;;;12.88;63.42;101370.81;5077104;28;45400;-68
2022/01/02 02:50:56;;;;;;;;;21.33;19.33;;;;;13.06;63.18;101379.75;5076993;28;45207;-67
2022/01/02 02:53:22;;;;;;;;;26.00;19.00;;;;;13.08;63.03;101376.94;5077114;28;45234;-68
2022/01/02 02:55:54;;;;;;;;;17.00;17.00;;;;;13.07;63.29;101372.59;5077025;28;45506;-69
2022/01/02 03:01:00;;;;;;;;;15.67;15.67;;;;;13.05;63.46;101369.22;5076822;28;45288;-68
2022/01/02 03:03:25;;;;;;;;;17.00;16.00;;;;;13.04;62.91;101371.06;5076713;28;45354;-68
2022/01/02 03:05:52;;;;;;;;;19.00;19.00;;;;;13.03;63.48;101374.72;5077198;27;45446;-68
2022/01/02 03:08:18;;;;;;;;;17.67;17.33;;;;;13.03;62.93;101374.72;5076542;28;45802;-68
2022/01/02 03:10:43;;;;;;;;;17.00;15.67;;;;;12.98;63.23;101371.59;5076681;28;45503;-68
2022/01/02 03:13:09;;;;;;;;;17.33;16.33;;;;;13.04;63.11;101387.06;5076919;28;45371;-68
2022/01/02 03:15:34;;;;;;;;;19.00;15.00;;;;;12.94;63.14;101353.38;5083604;27;45355;-68
2022/01/02 03:17:59;;;;;;;;;17.00;16.00;;;;;12.92;62.79;101342.00;5078495;27;47497;-67
2022/01/02 03:20:25;;;;;;;;;12.67;11.00;;;;;12.92;63.02;101339.34;5096896;27;45465;-68
2022/01/02 03:22:50;;;;;;;;;18.00;16.33;;;;;12.83;62.68;101324.19;5097275;27;45460;-68
2022/01/02 03:25:17;;;;;;;;;17.00;14.67;;;;;12.78;62.56;101317.44;5078977;27;45194;-69
2022/01/02 03:27:44;;;;;;;;;14.00;14.00;;;;;12.85;62.86;101343.56;5080380;27;47811;-68
2022/01/02 03:30:12;;;;;;;;;14.33;14.33;;;;;12.79;63.21;101368.97;5100341;27;45569;-68
2022/01/02 03:32:38;;;;;;;;;14.33;13.33;;;;;12.72;63.33;101362.53;5100590;27;45299;-67
2022/01/02 03:35:05;;;;;;;;;13.67;12.67;;;;;12.86;62.95;101367.44;5082437;27;45367;-68
2022/01/02 03:37:33;;;;;;;;;15.00;13.33;;;;;12.86;63.29;101361.25;5100379;27;46261;-68
2022/01/02 03:39:58;;;;;;;;;13.67;13.00;;;;;12.75;62.58;101348.91;5081852;27;45181;-68
2022/01/02 03:42:24;;;;;;;;;18.00;16.67;;;;;12.78;62.80;101351.28;5100442;27;45389;-68
2022/01/02 03:44:49;;;;;;;;;14.00;12.67;;;;;12.81;62.57;101359.00;5100342;27;45187;-68
2022/01/02 03:47:15;;;;;;;;;13.33;13.33;;;;;12.85;62.90;101365.75;5100187;27;47312;-69
2022/01/02 03:49:40;;;;;;;;;14.00;13.00;;;;;12.61;63.14;101317.34;5100229;27;45249;-69
2022/01/02 03:52:05;;;;;;;;;13.67;13.00;;;;;12.90;62.93;101352.81;5100065;27;45281;-68
2022/01/02 03:54:31;;;;;;;;;14.67;13.67;;;;;12.86;63.01;101351.44;5100591;27;45567;-68
2022/01/02 03:56:57;;;;;;;;;13.00;11.33;;;;;12.63;63.18;101316.25;5099981;27;45636;-68
2022/01/02 03:59:22;;;;;;;;;16.00;15.00;;;;;12.83;62.71;101334.88;5099910;27;45350;-67
2022/01/02 04:01:48;;;;;;;;;16.67;15.67;;;;;12.86;62.65;101343.44;5081448;27;45462;-68
2022/01/02 04:04:13;;;;;;;;;15.67;15.67;;;;;12.85;62.72;101332.91;5099780;27;45516;-68
2022/01/02 04:06:39;;;;;;;;;14.00;14.00;;;;;12.86;62.69;101332.75;5104469;27;45679;-69
2022/01/02 04:09:04;;;;;;;;;13.67;13.67;;;;;12.84;62.55;101332.06;5094076;27;45518;-67
2022/01/02 04:11:29;;;;;;;;;14.00;14.00;;;;;12.95;62.30;101347.88;5100103;27;45326;-69
2022/01/02 04:13:55;;;;;;;;;15.67;15.67;;;;;12.88;62.25;101325.44;5100193;27;45458;-68
2022/01/02 04:16:20;;;;;;;;;14.33;13.33;;;;;12.99;61.91;101337.75;5099567;27;46041;-69
2022/01/02 04:18:46;;;;;;;;;15.33;14.00;;;;;12.94;62.45;101343.53;5081320;27;46314;-70
2022/01/02 04:21:11;;;;;;;;;12.67;12.67;;;;;13.00;62.30;101339.44;5099907;27;45658;-68
2022/01/02 04:23:38;;;;;;;;;11.67;11.00;;;;;13.00;62.34;101336.75;5100002;27;46476;-68
2022/01/02 04:26:04;;;;;;;;;14.33;14.00;;;;;12.99;62.44;101327.91;5099441;27;46689;-69
2022/01/02 04:28:29;;;;;;;;;15.33;14.00;;;;;12.97;61.80;101305.88;5099284;27;45532;-69
2022/01/02 04:30:55;;;;;;;;;16.33;14.67;;;;;12.85;61.61;101292.88;5099688;27;45118;-68
2022/01/02 04:33:20;;;;;;;;;13.00;13.00;;;;;12.83;62.09;101303.69;5099665;27;45215;-69
2022/01/02 04:35:45;;;;;;;;;15.67;14.67;;;;;12.95;61.96;101323.03;5099435;27;45579;-69
2022/01/02 04:38:13;;;;;;;;;15.67;15.33;;;;;12.87;61.97;101314.91;5080839;27;45368;-69
2022/01/02 04:40:38;;;;;;;;;13.67;13.67;;;;;12.91;61.83;101300.28;5099324;27;45457;-67
2022/01/02 04:43:03;;;;;;;;;14.67;13.33;;;;;12.90;61.65;101306.63;5099562;27;45411;-67
2022/01/02 04:45:29;;;;;;;;;13.00;12.00;;;;;12.89;61.70;101297.75;5099375;27;45501;-69
2022/01/02 04:47:55;;;;;;;;;13.67;13.67;;;;;12.98;62.10;101317.38;5080902;27;45446;-68
2022/01/02 04:50:20;;;;;;;;;13.00;13.00;;;;;12.95;61.47;101307.84;5099410;27;45297;-67
2022/01/02 04:52:46;;;;;;;;;12.33;12.00;;;;;12.84;61.68;101273.34;5099557;27;45593;-68
2022/01/02 04:55:11;;;;;;;;;13.00;12.00;;;;;12.84;62.08;101278.69;5099008;27;46535;-68
2022/01/02 04:57:36;;;;;;;;;13.00;13.00;;;;;12.91;61.79;101295.78;5099250;27;45307;-68
2022/01/02 05:00:04;;;;;;;;;13.67;13.00;;;;;12.90;62.08;101280.75;5080615;27;45216;-68
2022/01/02 05:02:30;;;;;;;;;16.67;13.33;;;;;12.92;61.73;101278.78;5099307;27;45335;-68
2022/01/02 05:04:55;;;;;;;;;14.00;14.00;;;;;12.91;61.72;101274.44;5099028;27;46435;-69
2022/01/02 05:07:20;;;;;;;;;12.00;12.00;;;;;12.93;61.34;101267.13;5098880;27;45241;-67
2022/01/02 05:09:46;;;;;;;;;15.00;14.00;;;;;12.93;61.14;101245.78;5099283;27;45431;-68
2022/01/02 05:12:11;;;;;;;;;11.00;11.00;;;;;12.92;61.49;101249.44;5080863;27;45598;-68
2022/01/02 05:14:37;;;;;;;;;13.00;12.00;;;;;12.88;62.01;101234.72;5098962;27;45730;-69
2022/01/02 05:17:03;;;;;;;;;14.00;14.00;;;;;12.46;61.29;101183.63;5098613;27;45484;-68
2022/01/02 05:19:28;;;;;;;;;16.67;14.00;;;;;12.76;61.55;101241.19;5098957;27;45364;-69
2022/01/02 05:21:53;;;;;;;;;12.00;12.00;;;;;12.97;61.72;101278.34;5099002;27;45402;-69
2022/01/02 05:24:19;;;;;;;;;14.00;12.00;;;;;13.01;61.53;101277.06;5098649;27;46591;-69
2022/01/02 05:26:44;;;;;;;;;14.00;14.00;;;;;12.73;61.53;101228.16;5098722;27;45251;-68
2022/01/02 05:29:09;;;;;;;;;15.67;13.00;;;;;13.05;61.41;101265.97;5098761;27;45349;-68
2022/01/02 05:31:35;;;;;;;;;12.67;12.67;;;;;13.01;60.69;101245.91;5098828;27;45520;-69
2022/01/02 05:34:00;;;;;;;;;13.00;12.00;;;;;13.02;61.20;101228.91;5098433;27;45669;-68
2022/01/02 05:36:25;;;;;;;;;10.67;10.00;;;;;12.83;60.94;101223.63;5098618;27;45464;-69
2022/01/02 05:38:51;;;;;;;;;11.00;11.00;;;;;13.02;60.63;101233.41;5098720;27;45826;-69
2022/01/02 05:41:16;;;;;;;;;11.67;11.00;;;;;12.39;60.62;101138.00;5098766;27;45576;-69
2022/01/02 05:43:42;;;;;;;;;14.67;12.33;;;;;13.05;60.38;101249.94;5098523;27;46666;-68
2022/01/02 05:46:07;;;;;;;;;14.67;13.67;;;;;13.13;60.67;101253.69;5098318;27;45271;-69
2022/01/02 05:48:34;;;;;;;;;14.00;12.00;;;;;13.15;60.26;101254.38;5098538;27;45375;-68
2022/01/02 05:51:00;;;;;;;;;13.33;10.00;;;;;13.14;60.68;101242.03;5098282;27;45272;-69
2022/01/02 05:53:26;;;;;;;;;10.33;10.33;;;;;13.20;60.36;101255.66;5098329;27;45867;-69
2022/01/02 05:55:52;;;;;;;;;11.33;10.00;;;;;13.18;60.53;101256.78;5098021;27;45581;-69
2022/01/02 05:58:17;;;;;;;;;12.67;12.00;;;;;12.83;60.18;101212.13;5098358;27;45351;-67
2022/01/02 06:00:43;;;;;;;;;12.33;11.00;;;;;13.05;60.27;101244.59;5098207;27;45449;-69
2022/01/02 06:03:08;;;;;;;;;12.00;12.00;;;;;12.82;60.27;101207.78;5097982;27;45422;-67
2022/01/02 06:05:33;;;;;;;;;11.00;11.00;;;;;13.22;59.87;101272.38;5098062;27;45513;-68
2022/01/02 06:07:59;;;;;;;;;11.33;10.67;;;;;13.18;60.15;101254.97;5098032;27;45469;-68
2022/01/02 06:10:24;;;;;;;;;11.00;11.00;;;;;13.20;60.16;101257.47;5098417;27;45436;-66
2022/01/02 06:12:50;;;;;;;;;11.00;10.00;;;;;13.18;60.00;101248.78;5097910;27;46686;-68
2022/01/02 06:15:15;;;;;;;;;10.00;9.00;;;;;13.18;60.13;101243.44;5097641;27;45467;-68
2022/01/02 06:17:40;;;;;;;;;12.00;10.00;;;;;13.13;59.63;101229.66;5098147;27;45335;-69
2022/01/02 06:20:07;;;;;;;;;12.00;11.33;;;;;13.20;60.27;101255.66;5097777;27;46880;-69
2022/01/02 06:22:32;;;;;;;;;11.00;9.00;;;;;13.19;60.29;101242.44;5097629;27;46727;-68
2022/01/02 06:24:58;;;;;;;;;12.33;11.67;;;;;13.06;59.80;101218.75;5097570;27;45462;-68
2022/01/02 06:27:24;;;;;;;;;10.00;10.00;;;;;13.16;60.03;101240.03;5097703;27;45253;-70
2022/01/02 06:29:49;;;;;;;;;10.33;9.67;;;;;13.06;59.96;101248.97;5098226;27;45532;-69
2022/01/02 06:32:15;;;;;;;;;11.67;11.00;;;;;13.10;60.09;101245.00;5097528;27;47638;-69
2022/01/02 06:34:40;;;;;;;;;10.00;10.00;;;;;13.12;60.08;101247.50;5097642;27;45248;-69
2022/01/02 06:37:05;;;;;;;;;11.00;8.67;;;;;13.06;60.37;101272.97;5097888;27;45495;-68
2022/01/02 06:39:31;;;;;;;;;10.33;10.33;;;;;13.13;59.88;101267.03;5097636;27;45236;-68
2022/01/02 06:41:56;;;;;;;;;12.33;10.00;;;;;13.06;60.09;101256.13;5097651;27;46377;-67
2022/01/02 06:44:21;;;;;;;;;7.00;7.00;;;;;13.16;59.95;101267.59;5097860;27;45466;-69
2022/01/02 06:46:47;;;;;;;;;10.00;8.33;;;;;13.04;60.18;101253.59;5097570;27;45856;-69
2022/01/02 06:49:12;;;;;;;;;11.33;11.00;;;;;13.11;60.25;101264.53;5097604;27;45475;-68
2022/01/02 06:51:37;;;;;;;;;11.00;10.00;;;;;13.06;60.38;101264.97;5097208;27;46297;-69
2022/01/02 06:54:03;;;;;;;;;9.33;9.33;;;;;13.20;60.32;101279.66;5097375;27;45599;-68
2022/01/02 06:56:28;;;;;;;;;10.00;10.00;;;;;13.10;60.65;101261.00;5097664;27;45465;-69
2022/01/02 06:58:54;;;;;;;;;7.67;7.67;;;;;13.22;60.24;101266.22;5097504;27;45453;-68
2022/01/02 07:01:19;;;;;;;;;12.33;9.00;;;;;12.79;60.39;101201.72;5097448;27;47337;-67
2022/01/02 07:03:44;;;;;;;;;10.67;8.33;;;;;13.08;60.23;101260.31;5100770;27;45400;-69
2022/01/02 07:06:10;;;;;;;;;10.67;10.67;;;;;13.10;60.60;101246.81;5100887;27;45688;-69
2022/01/02 07:08:35;;;;;;;;;13.00;9.33;;;;;13.24;60.44;101272.22;5101177;27;45445;-68
2022/01/02 07:11:00;;;;;;;;;12.00;11.67;;;;;13.23;60.80;101262.53;5082236;27;46592;-69
2022/01/02 07:13:26;;;;;;;;;10.00;10.00;;;;;13.14;60.88;101269.56;5100885;27;45265;-68
2022/01/02 07:15:51;;;;;;;;;10.33;10.33;;;;;13.17;60.93;101284.44;5100789;27;45422;-68
2022/01/02 07:18:17;;;;;;;;;8.67;8.67;;;;;13.08;61.06;101273.66;5101165;27;45443;-69
2022/01/02 07:20:43;;;;;;;;;12.00;10.33;;;;;13.15;61.29;101278.41;5101520;27;45428;-70
2022/01/02 07:23:08;;;;;;;;;8.33;8.33;;;;;12.99;61.15;101253.19;5100737;27;45341;-68
2022/01/02 07:25:33;;;;;;;;;9.00;9.00;;;;;13.06;61.80;101272.97;5100735;27;45437;-68
2022/01/02 07:27:59;;;;;;;;;10.33;10.33;;;;;13.14;61.40;101284.75;5082551;27;45473;-68
2022/01/02 07:30:24;;;;;;;;;11.00;10.67;;;;;13.23;61.38;101294.59;5082147;27;47026;-68
2022/01/02 07:32:50;;;;;;;;;11.33;10.33;;;;;13.26;61.59;101304.97;5100301;27;45210;-71
2022/01/02 07:35:15;;;;;;;;;10.33;9.67;;;;;13.10;61.26;101274.38;5100592;27;45548;-69
2022/01/02 07:37:41;;;;;;;;;9.67;9.67;;;;;13.33;61.46;101290.03;5100639;27;45204;-68
2022/01/02 07:40:07;;;;;;;;;8.00;7.00;;;;;13.34;61.22;101303.22;5081528;27;47019;-68
2022/01/02 07:42:35;;;;;;;;;10.00;8.33;;;;;13.32;61.87;101293.69;5100040;27;45426;-68
2022/01/02 07:45:01;;;;;;;;;9.33;9.00;;;;;13.38;61.66;101303.75;5100561;27;45356;-69
2022/01/02 07:47:26;;;;;;;;;11.00;9.67;;;;;13.04;61.70;101247.44;5082136;27;45332;-69
2022/01/02 07:49:52;;;;;;;;;10.67;10.67;;;;;13.48;61.53;101317.09;5083335;27;46490;-68
2022/01/02 07:52:20;;;;;;;;;12.00;11.00;;;;;13.16;61.19;101272.09;5120656;27;45231;-68
2022/01/02 07:54:46;;;;;;;;;10.67;10.00;;;;;13.28;61.35;101300.31;5120925;27;45259;-69
2022/01/02 07:57:12;;;;;;;;;11.33;10.67;;;;;13.50;61.44;101339.97;5120766;27;45141;-69
2022/01/02 07:59:37;;;;;;;;;10.33;8.33;;;;;13.04;61.31;101269.63;5120446;27;46182;-69
2022/01/02 08:02:02;;;;;;;;;11.00;11.00;;;;;13.37;62.10;101332.31;5101603;27;45495;-69
2022/01/02 08:04:37;;;;;;;;;13.33;11.00;;;;;13.49;61.90;101358.84;5120777;27;45325;-69
2022/01/02 08:07:02;;;;;;;;;12.33;12.33;;;;;13.34;61.71;101342.44;5120578;27;45544;-68
2022/01/02 08:09:28;;;;;;;;;13.67;11.33;;;;;13.48;62.48;101368.69;5120207;27;46936;-68
2022/01/02 08:11:53;;;;;;;;;11.67;10.67;;;;;13.47;61.95;101367.00;5119979;27;51610;-68
2022/01/02 08:14:19;;;;;;;;;9.00;9.00;;;;;13.47;62.33;101390.19;5119229;27;45362;-68
2022/01/02 08:16:45;;;;;;;;;8.33;8.33;;;;;13.47;62.24;101382.19;5101773;27;45375;-69
2022/01/02 08:19:10;;;;;;;;;14.67;11.33;;;;;13.50;62.49;101381.88;5100972;27;47000;-68
2022/01/02 08:21:36;;;;;;;;;11.33;11.33;;;;;13.38;62.91;101363.38;5102870;27;45310;-68
2022/01/02 08:24:02;;;;;;;;;15.33;14.00;;;;;13.45;62.38;101377.00;5099377;27;45594;-69
2022/01/02 08:26:28;;;;;;;;;11.00;9.00;;;;;13.52;62.67;101396.78;5099669;27;45180;-68
2022/01/02 08:28:54;;;;;;;;;14.00;14.00;;;;;13.43;62.57;101378.97;5099304;27;45499;-67
2022/01/02 08:31:19;;;;;;;;;12.33;9.67;;;;;13.46;62.76;101377.84;5097886;27;45435;-69
2022/01/02 08:33:45;;;;;;;;;12.00;10.67;;;;;13.55;63.04;101383.13;5099802;27;45185;-69
2022/01/02 08:36:10;;;;;;;;;13.67;13.67;;;;;13.56;62.83;101376.78;5099656;27;45453;-69
2022/01/02 08:38:38;;;;;;;;;12.00;11.00;;;;;13.53;63.10;101373.56;5099299;27;46113;-68
2022/01/02 08:41:03;;;;;;;;;12.67;11.33;;;;;13.52;63.47;101374.56;5099637;27;45422;-67
2022/01/02 08:43:29;;;;;;;;;12.00;12.00;;;;;13.34;63.80;101355.78;5099168;27;45417;-68
2022/01/02 08:45:54;;;;;;;;;12.67;11.00;;;;;13.55;63.64;101375.09;5080919;27;45450;-68
2022/01/02 08:48:20;;;;;;;;;10.33;10.00;;;;;13.53;63.42;101366.41;5099932;27;45970;-67
2022/01/02 08:50:45;;;;;;;;;11.67;10.67;;;;;13.72;63.28;101394.00;5099120;27;45449;-69
2022/01/02 08:53:11;;;;;;;;;10.67;9.67;;;;;13.77;63.79;101378.38;5099252;27;45252;-69
2022/01/02 08:55:36;;;;;;;;;11.67;11.33;;;;;13.77;63.30;101387.22;5099275;27;45589;-68
2022/01/02 08:58:04;;;;;;;;;14.67;14.67;;;;;13.80;63.58;101394.94;5099000;27;45927;-69
2022/01/02 09:00:32;;;;;;;;;14.00;14.00;;;;;13.77;63.47;101386.38;5098568;27;45525;-69
2022/01/02 09:02:57;;;;;;;;;13.00;11.67;;;;;13.87;63.58;101390.69;5098946;27;45437;-68
2022/01/02 09:05:25;;;;;;;;;15.33;11.67;;;;;13.57;63.66;101335.72;5099201;27;45253;-68
2022/01/02 09:07:50;;;;;;;;;12.67;11.00;;;;;14.07;63.56;101420.00;5098715;27;45940;-69
2022/01/02 09:10:17;;;;;;;;;11.00;10.67;;;;;14.16;63.19;101422.59;5080334;27;45521;-68
2022/01/02 09:12:48;;;;;;;;;16.00;11.33;;;;;14.17;63.18;101402.03;5098749;27;45407;-68
2022/01/02 09:15:14;;;;;;;;;10.00;9.00;;;;;14.29;63.17;101419.56;5099056;27;45377;-69
2022/01/02 09:17:39;;;;;;;;;14.00;13.00;;;;;14.29;62.94;101417.72;5102164;27;46272;-69
2022/01/02 09:20:06;;;;;;;;;9.67;9.67;;;;;14.38;62.86;101415.97;5119147;27;45256;-69
2022/01/02 09:22:32;;;;;;;;;12.33;11.00;;;;;14.20;63.06;101399.88;5119449;27;45428;-69
2022/01/02 09:24:57;;;;;;;;;12.33;10.00;;;;;14.16;62.97;101395.84;5118640;27;45323;-68
2022/01/02 09:27:23;;;;;;;;;12.00;10.67;;;;;13.92;63.23;101377.72;5118839;27;45519;-68
2022/01/02 09:29:48;;;;;;;;;9.00;9.00;;;;;14.12;63.71;101421.22;5118847;27;45228;-68
2022/01/02 09:32:14;;;;;;;;;10.67;10.67;;;;;14.00;63.56;101395.66;5100117;27;45458;-69
2022/01/02 09:34:39;;;;;;;;;14.00;12.33;;;;;14.28;63.57;101437.44;5119345;27;45441;-70
2022/01/02 09:37:28;;;;;;;;;12.67;9.00;;;;;14.37;63.46;101445.53;5118846;27;45372;-69
2022/01/02 09:39:53;;;;;;;;;12.00;10.00;;;;;14.35;63.35;101437.66;5100381;27;45378;-69
2022/01/02 09:42:19;;;;;;;;;9.00;7.33;;;;;14.42;63.34;101445.94;5118795;27;45425;-69
2022/01/02 09:44:44;;;;;;;;;13.00;11.00;;;;;14.02;63.22;101369.66;5119066;27;45354;-68
2022/01/02 09:47:10;;;;;;;;;14.67;13.33;;;;;14.35;63.38;101426.13;5118544;27;45804;-77
2022/01/02 09:49:38;;;;;;;;;10.33;8.67;;;;;14.23;63.41;101407.63;5098074;27;45323;-69
2022/01/02 09:52:04;;;;;;;;;10.67;8.67;;;;;13.84;63.66;101348.25;5098247;27;45337;-69
2022/01/02 09:54:32;;;;;;;;;12.67;11.00;;;;;14.30;63.99;101432.78;5098437;27;45384;-72
2022/01/02 09:56:58;;;;;;;;;9.33;8.67;;;;;14.29;63.90;101433.78;5079210;27;48299;-69
2022/01/02 09:59:23;;;;;;;;;9.33;8.33;;;;;14.16;64.04;101409.22;5097748;27;45387;-67
2022/01/02 10:01:49;;;;;;;;;15.67;9.00;;;;;14.23;63.82;101428.19;5098199;27;45377;-69
2022/01/02 10:04:32;;;;;;;;;10.67;10.67;;;;;14.28;63.88;101442.78;5097018;27;45581;-68
2022/01/02 10:06:57;;;;;;;;;7.67;7.67;;;;;14.34;63.70;101443.16;5097756;27;45918;-68
2022/01/02 10:09:34;;;;;;;;;7.67;7.67;;;;;14.43;63.84;101444.94;5097610;27;45394;-69
2022/01/02 10:12:19;;;;;;;;;13.67;13.67;;;;;14.29;63.28;101407.03;5098108;27;45464;-67
2022/01/02 10:14:45;;;;;;;;;8.67;8.67;;;;;14.34;62.84;101379.81;5097771;27;45592;-69
2022/01/02 10:17:10;;;;;;;;;13.33;12.00;;;;;14.58;62.71;101417.53;5080626;27;48314;-68
2022/01/02 10:19:38;;;;;;;;;10.00;9.00;;;;;14.79;62.75;101441.28;5117684;27;45458;-68
2022/01/02 10:22:06;;;;;;;;;10.00;9.00;;;;;14.72;62.37;101434.03;5118254;27;45370;-70
2022/01/02 10:24:37;;;;;;;;;12.33;10.67;;;;;14.68;62.40;101414.78;5118227;27;45557;-68
2022/01/02 10:27:14;;;;;;;;;10.67;10.00;;;;;14.74;62.53;101422.19;5099416;27;47750;-68
2022/01/02 10:29:55;;;;;;;;;11.00;10.00;;;;;14.90;61.83;101435.69;5117754;27;45245;-68
2022/01/02 10:32:23;;;;;;;;;10.33;10.00;;;;;14.90;61.84;101427.66;5118259;27;45368;-67
2022/01/02 10:34:55;;;;;;;;;12.33;11.33;;;;;14.94;61.93;101432.72;5118263;27;45572;-68
2022/01/02 10:37:24;;;;;;;;;10.00;8.67;;;;;14.60;61.94;101371.88;5116979;27;46013;-68
2022/01/02 10:39:50;;;;;;;;;4.00;3.00;;;;;15.09;61.65;101439.19;5117873;27;45352;-68
2022/01/02 10:42:17;;;;;;;;;7.00;7.00;;;;;15.17;61.40;101437.41;5118113;27;45395;-70
2022/01/02 10:44:42;;;;;;;;;7.00;7.00;;;;;15.20;61.23;101417.50;5117875;27;45465;-68
2022/01/02 10:47:24;;;;;;;;;5.00;4.33;;;;;15.36;61.03;101444.38;5115783;27;46811;-69
2022/01/02 10:50:11;;;;;;;;;9.00;7.67;;;;;15.41;60.97;101434.03;5094367;27;46150;-69
2022/01/02 10:52:42;;;;;;;;;4.00;4.00;;;;;15.30;60.72;101412.88;5117975;27;45234;-68
2022/01/02 10:55:14;;;;;;;;;8.67;6.67;;;;;15.39;60.65;101436.03;5118000;27;45591;-69
2022/01/02 10:57:42;;;;;;;;;12.67;8.33;;;;;15.34;60.70;101442.88;5117822;27;46959;-68
2022/01/02 11:00:09;;;;;;;;;4.67;4.67;;;;;15.32;61.23;101431.47;5117649;27;45252;-69
2022/01/02 11:02:34;;;;;;;;;9.00;6.33;;;;;15.39;61.19;101440.56;5117484;27;45507;-68
2022/01/02 11:05:08;;;;;;;;;7.00;5.00;;;;;15.35;61.22;101429.31;5099335;27;45438;-70
2022/01/02 11:07:47;;;;;;;;;8.33;5.33;;;;;15.40;61.26;101439.56;5117382;27;46233;-67
2022/01/02 11:10:16;;;;;;;;;11.67;7.33;;;;;15.25;61.12;101409.84;5117455;27;45374;-68
2022/01/02 11:12:42;;;;;;;;;4.00;3.67;;;;;15.40;61.44;101428.84;5117430;27;45310;-69
2022/01/02 11:15:10;;;;;;;;;5.33;5.33;;;;;15.27;61.18;101405.16;5117467;27;45542;-69
2022/01/02 11:17:36;;;;;;;;;4.67;4.67;;;;;15.14;61.28;101377.94;5112725;27;46568;-68
2022/01/02 11:20:15;;;;;;;;;4.00;4.00;;;;;15.44;61.21;101436.41;5096847;27;45204;-69